sensor_id;sensor_type;location;lat;lon;timestamp;pressure;altitude;pressure_sealevel;temperature;humidity
13869;BME280;7004;48.206;16.402;2023-03-26T00:01:18;99113.47;;;10.56;58.17
13869;BME280;7004;48.206;16.402;2023-03-26T00:03:46;99108.44;;;10.53;59.34
13869;BME280;7004;48.206;16.402;2023-03-26T00:06:21;99101.09;;;10.32;58.98
13869;BME280;7004;48.206;16.402;2023-03-26T00:08:51;99105.50;;;10.44;58.87
13869;BME280;7004;48.206;16.402;2023-03-26T00:11:20;99107.44;;;10.30;59.12
13869;BME280;7004;48.206;16.402;2023-03-26T00:13:47;99100.25;;;10.32;59.29
13869;BME280;7004;48.206;16.402;2023-03-26T00:16:17;99103.88;;;10.31;59.15
13869;BME280;7004;48.206;16.402;2023-03-26T00:18:45;99096.78;;;10.31;59.42
13869;BME280;7004;48.206;16.402;2023-03-26T00:21:16;99104.06;;;10.40;58.45
13869;BME280;7004;48.206;16.402;2023-03-26T00:23:43;99094.19;;;10.42;58.51
13869;BME280;7004;48.206;16.402;2023-03-26T00:26:09;99101.56;;;10.50;57.86
13869;BME280;7004;48.206;16.402;2023-03-26T00:28:38;99097.25;;;10.49;58.53
13869;BME280;7004;48.206;16.402;2023-03-26T00:31:09;99095.22;;;10.53;58.19
13869;BME280;7004;48.206;16.402;2023-03-26T00:33:36;99093.53;;;10.27;58.61
13869;BME280;7004;48.206;16.402;2023-03-26T00:36:10;99104.47;;;10.34;58.18
13869;BME280;7004;48.206;16.402;2023-03-26T00:38:40;99097.47;;;10.46;58.47
13869;BME280;7004;48.206;16.402;2023-03-26T00:41:10;99098.22;;;10.48;58.73
13869;BME280;7004;48.206;16.402;2023-03-26T00:43:50;99096.84;;;10.42;58.20
13869;BME280;7004;48.206;16.402;2023-03-26T00:46:16;99098.22;;;10.48;57.77
13869;BME280;7004;48.206;16.402;2023-03-26T00:48:44;99096.75;;;10.44;57.91
13869;BME280;7004;48.206;16.402;2023-03-26T00:51:12;99092.63;;;10.40;57.88
13869;BME280;7004;48.206;16.402;2023-03-26T00:53:40;99094.47;;;10.50;57.81
13869;BME280;7004;48.206;16.402;2023-03-26T00:56:08;99093.81;;;10.60;57.26
13869;BME280;7004;48.206;16.402;2023-03-26T00:58:35;99086.41;;;10.65;57.45
13869;BME280;7004;48.206;16.402;2023-03-26T01:01:13;99101.25;;;10.55;57.32
13869;BME280;7004;48.206;16.402;2023-03-26T01:03:44;99083.53;;;10.44;57.72
13869;BME280;7004;48.206;16.402;2023-03-26T01:06:24;99076.56;;;10.43;57.38
13869;BME280;7004;48.206;16.402;2023-03-26T01:08:56;99087.72;;;10.70;56.80
13869;BME280;7004;48.206;16.402;2023-03-26T01:11:29;99076.38;;;10.57;56.96
13869;BME280;7004;48.206;16.402;2023-03-26T01:14:06;99087.19;;;10.54;57.16
13869;BME280;7004;48.206;16.402;2023-03-26T01:16:43;99081.56;;;10.59;57.22
13869;BME280;7004;48.206;16.402;2023-03-26T01:19:56;99042.78;;;10.59;57.26
13869;BME280;7004;48.206;16.402;2023-03-26T01:22:36;99058.59;;;10.48;57.66
13869;BME280;7004;48.206;16.402;2023-03-26T01:25:03;99044.28;;;10.50;57.79
13869;BME280;7004;48.206;16.402;2023-03-26T01:27:51;99052.66;;;10.44;57.70
13869;BME280;7004;48.206;16.402;2023-03-26T01:31:24;99057.16;;;10.55;57.28
13869;BME280;7004;48.206;16.402;2023-03-26T01:33:55;99064.78;;;10.71;57.08
13869;BME280;7004;48.206;16.402;2023-03-26T01:39:56;99045.50;;;10.58;57.54
13869;BME280;7004;48.206;16.402;2023-03-26T01:42:45;99052.59;;;10.57;58.13
13869;BME280;7004;48.206;16.402;2023-03-26T01:45:16;99037.84;;;10.66;57.47
13869;BME280;7004;48.206;16.402;2023-03-26T01:47:45;99044.56;;;10.59;58.02
13869;BME280;7004;48.206;16.402;2023-03-26T01:50:11;99043.19;;;10.53;57.97
13869;BME280;7004;48.206;16.402;2023-03-26T01:52:38;99040.22;;;10.58;57.92
13869;BME280;7004;48.206;16.402;2023-03-26T01:55:05;99032.63;;;10.77;57.48
13869;BME280;7004;48.206;16.402;2023-03-26T02:00:30;99045.56;;;10.45;58.39
13869;BME280;7004;48.206;16.402;2023-03-26T02:08:36;99052.81;;;10.78;57.75
13869;BME280;7004;48.206;16.402;2023-03-26T02:11:10;99046.25;;;10.60;58.13
13869;BME280;7004;48.206;16.402;2023-03-26T02:13:43;99046.19;;;10.73;58.15
13869;BME280;7004;48.206;16.402;2023-03-26T02:16:15;99044.38;;;10.73;58.12
13869;BME280;7004;48.206;16.402;2023-03-26T02:18:46;99046.56;;;10.79;57.88
13869;BME280;7004;48.206;16.402;2023-03-26T02:21:19;99047.28;;;10.81;57.82
13869;BME280;7004;48.206;16.402;2023-03-26T02:23:49;99065.22;;;10.54;58.56
13869;BME280;7004;48.206;16.402;2023-03-26T02:26:23;99039.84;;;10.51;58.91
13869;BME280;7004;48.206;16.402;2023-03-26T02:28:50;99032.63;;;10.53;59.11
13869;BME280;7004;48.206;16.402;2023-03-26T02:31:16;99039.88;;;10.62;58.45
13869;BME280;7004;48.206;16.402;2023-03-26T02:33:44;99038.91;;;10.63;58.72
13869;BME280;7004;48.206;16.402;2023-03-26T02:36:15;99044.28;;;10.75;58.54
13869;BME280;7004;48.206;16.402;2023-03-26T02:38:44;99048.38;;;10.55;59.38
13869;BME280;7004;48.206;16.402;2023-03-26T02:41:10;99060.72;;;10.43;59.40
13869;BME280;7004;48.206;16.402;2023-03-26T02:43:36;99060.72;;;10.43;60.13
13869;BME280;7004;48.206;16.402;2023-03-26T02:46:02;99057.63;;;10.49;60.09
13869;BME280;7004;48.206;16.402;2023-03-26T02:48:28;99057.47;;;10.50;59.97
13869;BME280;7004;48.206;16.402;2023-03-26T02:50:56;99064.06;;;10.45;60.64
13869;BME280;7004;48.206;16.402;2023-03-26T02:53:22;99048.63;;;10.27;60.91
13869;BME280;7004;48.206;16.402;2023-03-26T02:55:55;99055.81;;;10.49;60.51
13869;BME280;7004;48.206;16.402;2023-03-26T02:58:22;99045.28;;;10.61;60.55
13869;BME280;7004;48.206;16.402;2023-03-26T03:00:52;99053.97;;;10.26;60.84
13869;BME280;7004;48.206;16.402;2023-03-26T03:03:25;99052.94;;;10.28;61.42
13869;BME280;7004;48.206;16.402;2023-03-26T03:05:55;99050.16;;;10.43;60.22
13869;BME280;7004;48.206;16.402;2023-03-26T03:08:25;99047.78;;;10.14;61.00
13869;BME280;7004;48.206;16.402;2023-03-26T03:10:58;99049.28;;;10.42;59.94
13869;BME280;7004;48.206;16.402;2023-03-26T03:13:24;99050.84;;;10.45;59.75
13869;BME280;7004;48.206;16.402;2023-03-26T03:15:50;99052.94;;;10.28;60.50
13869;BME280;7004;48.206;16.402;2023-03-26T03:18:16;99047.94;;;10.37;60.06
13869;BME280;7004;48.206;16.402;2023-03-26T03:20:43;99047.03;;;10.49;59.87
13869;BME280;7004;48.206;16.402;2023-03-26T03:23:10;99032.22;;;10.70;59.30
13869;BME280;7004;48.206;16.402;2023-03-26T03:25:36;99048.78;;;10.37;60.34
13869;BME280;7004;48.206;16.402;2023-03-26T03:28:03;99050.72;;;10.35;61.08
13869;BME280;7004;48.206;16.402;2023-03-26T03:30:29;99045.84;;;10.29;60.92
13869;BME280;7004;48.206;16.402;2023-03-26T03:32:55;99045.09;;;10.27;61.22
13869;BME280;7004;48.206;16.402;2023-03-26T03:35:26;99043.28;;;10.40;61.22
13869;BME280;7004;48.206;16.402;2023-03-26T03:37:53;99033.34;;;10.44;60.78
13869;BME280;7004;48.206;16.402;2023-03-26T03:40:19;99037.78;;;10.43;60.66
13869;BME280;7004;48.206;16.402;2023-03-26T03:42:46;99042.53;;;10.62;60.49
13869;BME280;7004;48.206;16.402;2023-03-26T03:45:12;99036.72;;;10.46;61.21
13869;BME280;7004;48.206;16.402;2023-03-26T03:47:38;99033.88;;;10.36;60.86
13869;BME280;7004;48.206;16.402;2023-03-26T03:50:05;99058.63;;;10.35;61.11
13869;BME280;7004;48.206;16.402;2023-03-26T03:52:32;99037.38;;;10.37;61.69
13869;BME280;7004;48.206;16.402;2023-03-26T03:54:58;99039.94;;;10.49;60.65
13869;BME280;7004;48.206;16.402;2023-03-26T03:57:28;99037.84;;;10.31;61.72
13869;BME280;7004;48.206;16.402;2023-03-26T03:59:54;99043.16;;;10.42;61.38
13869;BME280;7004;48.206;16.402;2023-03-26T04:02:26;99047.25;;;10.70;60.01
13869;BME280;7004;48.206;16.402;2023-03-26T04:05:00;99047.88;;;10.49;60.38
13869;BME280;7004;48.206;16.402;2023-03-26T04:07:28;99049.28;;;10.42;60.54
13869;BME280;7004;48.206;16.402;2023-03-26T04:09:58;99046.13;;;10.37;60.33
13869;BME280;7004;48.206;16.402;2023-03-26T04:12:29;99052.50;;;10.59;60.09
13869;BME280;7004;48.206;16.402;2023-03-26T04:14:57;99056.88;;;10.47;60.63
13869;BME280;7004;48.206;16.402;2023-03-26T04:17:23;99054.28;;;10.58;59.95
13869;BME280;7004;48.206;16.402;2023-03-26T04:19:51;99059.34;;;10.61;59.85
13869;BME280;7004;48.206;16.402;2023-03-26T04:22:21;99065.06;;;10.55;60.44
13869;BME280;7004;48.206;16.402;2023-03-26T04:24:48;99062.72;;;10.39;60.39
13869;BME280;7004;48.206;16.402;2023-03-26T04:27:23;99063.00;;;10.47;59.96
13869;BME280;7004;48.206;16.402;2023-03-26T04:29:52;99073.13;;;10.54;59.91
13869;BME280;7004;48.206;16.402;2023-03-26T04:32:27;99078.88;;;10.71;58.64
13869;BME280;7004;48.206;16.402;2023-03-26T04:35:03;99067.78;;;10.66;58.34
13869;BME280;7004;48.206;16.402;2023-03-26T04:37:34;99086.13;;;10.57;59.42
13869;BME280;7004;48.206;16.402;2023-03-26T04:40:03;99083.56;;;10.55;59.40
13869;BME280;7004;48.206;16.402;2023-03-26T04:42:37;99089.97;;;10.40;60.07
13869;BME280;7004;48.206;16.402;2023-03-26T04:45:07;99092.47;;;10.54;59.54
13869;BME280;7004;48.206;16.402;2023-03-26T04:47:35;99087.47;;;10.62;59.40
13869;BME280;7004;48.206;16.402;2023-03-26T04:50:06;99087.25;;;10.41;59.89
13869;BME280;7004;48.206;16.402;2023-03-26T04:52:34;99089.19;;;10.50;59.29
13869;BME280;7004;48.206;16.402;2023-03-26T04:55:00;99088.84;;;10.55;58.81
13869;BME280;7004;48.206;16.402;2023-03-26T04:57:34;99083.06;;;10.50;59.32
13869;BME280;7004;48.206;16.402;2023-03-26T05:00:05;99087.72;;;10.70;58.17
13869;BME280;7004;48.206;16.402;2023-03-26T05:02:41;99084.16;;;10.71;58.44
13869;BME280;7004;48.206;16.402;2023-03-26T05:05:08;99085.81;;;10.73;58.30
13869;BME280;7004;48.206;16.402;2023-03-26T05:07:35;99091.69;;;10.65;58.46
13869;BME280;7004;48.206;16.402;2023-03-26T05:10:03;99091.78;;;10.63;58.70
13869;BME280;7004;48.206;16.402;2023-03-26T05:12:29;99084.09;;;10.84;58.28
13869;BME280;7004;48.206;16.402;2023-03-26T05:14:56;99092.94;;;10.48;60.18
13869;BME280;7004;48.206;16.402;2023-03-26T05:17:23;99094.56;;;10.62;59.55
13869;BME280;7004;48.206;16.402;2023-03-26T05:19:49;99098.31;;;10.70;58.10
13869;BME280;7004;48.206;16.402;2023-03-26T05:22:17;99094.53;;;10.86;58.11
13869;BME280;7004;48.206;16.402;2023-03-26T05:24:44;99104.06;;;10.64;58.54
13869;BME280;7004;48.206;16.402;2023-03-26T05:27:16;99097.25;;;10.49;59.02
13869;BME280;7004;48.206;16.402;2023-03-26T05:29:45;99106.44;;;10.56;58.59
13869;BME280;7004;48.206;16.402;2023-03-26T05:32:12;99094.38;;;10.52;59.01
13869;BME280;7004;48.206;16.402;2023-03-26T05:34:41;99095.59;;;10.83;58.28
13869;BME280;7004;48.206;16.402;2023-03-26T05:37:07;99082.84;;;10.77;58.93
13869;BME280;7004;48.206;16.402;2023-03-26T05:39:34;99100.63;;;10.75;58.44
13869;BME280;7004;48.206;16.402;2023-03-26T05:42:00;99102.47;;;10.62;58.63
13869;BME280;7004;48.206;16.402;2023-03-26T05:44:27;99099.50;;;10.66;58.82
13869;BME280;7004;48.206;16.402;2023-03-26T05:46:53;99106.13;;;10.72;58.23
13869;BME280;7004;48.206;16.402;2023-03-26T05:49:19;99111.69;;;10.80;58.28
13869;BME280;7004;48.206;16.402;2023-03-26T05:51:45;99101.38;;;10.88;57.74
13869;BME280;7004;48.206;16.402;2023-03-26T05:54:11;99102.34;;;10.87;57.83
13869;BME280;7004;48.206;16.402;2023-03-26T05:56:37;99098.28;;;10.94;58.50
13869;BME280;7004;48.206;16.402;2023-03-26T05:59:03;99118.84;;;11.02;57.89
13869;BME280;7004;48.206;16.402;2023-03-26T06:01:30;99109.16;;;10.79;58.30
13869;BME280;7004;48.206;16.402;2023-03-26T06:03:56;99110.81;;;11.04;57.36
13869;BME280;7004;48.206;16.402;2023-03-26T06:06:22;99108.47;;;11.23;56.90
13869;BME280;7004;48.206;16.402;2023-03-26T06:08:51;99120.00;;;11.22;57.10
13869;BME280;7004;48.206;16.402;2023-03-26T06:11:18;99124.06;;;11.15;56.86
13869;BME280;7004;48.206;16.402;2023-03-26T06:13:45;99137.22;;;10.92;58.38
13869;BME280;7004;48.206;16.402;2023-03-26T06:16:13;99135.88;;;11.22;57.34
13869;BME280;7004;48.206;16.402;2023-03-26T06:18:40;99136.47;;;11.14;57.85
13869;BME280;7004;48.206;16.402;2023-03-26T06:21:07;99138.44;;;12.04;64.84
13869;BME280;7004;48.206;16.402;2023-03-26T06:23:33;99141.66;;;11.74;57.46
13869;BME280;7004;48.206;16.402;2023-03-26T06:26:00;99143.63;;;12.06;57.15
13869;BME280;7004;48.206;16.402;2023-03-26T06:28:26;99139.41;;;12.14;58.62
13869;BME280;7004;48.206;16.402;2023-03-26T06:30:52;99150.22;;;12.11;55.01
13869;BME280;7004;48.206;16.402;2023-03-26T06:33:19;99149.34;;;11.77;56.33
13869;BME280;7004;48.206;16.402;2023-03-26T06:35:45;99149.22;;;11.67;56.76
13869;BME280;7004;48.206;16.402;2023-03-26T06:38:11;99159.16;;;11.41;57.00
13869;BME280;7004;48.206;16.402;2023-03-26T06:40:38;99159.53;;;11.59;56.55
13869;BME280;7004;48.206;16.402;2023-03-26T06:43:04;99158.84;;;11.57;57.54
13869;BME280;7004;48.206;16.402;2023-03-26T06:45:32;99162.34;;;11.22;57.76
13869;BME280;7004;48.206;16.402;2023-03-26T06:47:58;99160.88;;;11.65;56.96
13869;BME280;7004;48.206;16.402;2023-03-26T06:50:26;99161.44;;;12.03;55.60
13869;BME280;7004;48.206;16.402;2023-03-26T06:52:54;99162.38;;;12.36;55.99
13869;BME280;7004;48.206;16.402;2023-03-26T06:55:21;99152.53;;;11.93;55.45
13869;BME280;7004;48.206;16.402;2023-03-26T06:57:52;99155.66;;;12.10;54.93
13869;BME280;7004;48.206;16.402;2023-03-26T07:00:20;99154.91;;;12.19;54.59
13869;BME280;7004;48.206;16.402;2023-03-26T07:02:46;99151.03;;;13.00;52.66
13869;BME280;7004;48.206;16.402;2023-03-26T07:05:13;99146.78;;;12.77;52.92
13869;BME280;7004;48.206;16.402;2023-03-26T07:07:39;99147.88;;;12.63;52.56
13869;BME280;7004;48.206;16.402;2023-03-26T07:10:07;99139.78;;;13.92;50.21
13869;BME280;7004;48.206;16.402;2023-03-26T07:12:33;99131.75;;;13.82;50.10
13869;BME280;7004;48.206;16.402;2023-03-26T07:15:01;99133.72;;;14.20;48.99
13869;BME280;7004;48.206;16.402;2023-03-26T07:17:28;99128.56;;;14.19;49.31
13869;BME280;7004;48.206;16.402;2023-03-26T07:19:54;99124.09;;;14.79;48.33
13869;BME280;7004;48.206;16.402;2023-03-26T07:22:23;99127.88;;;13.86;49.11
13869;BME280;7004;48.206;16.402;2023-03-26T07:24:50;99120.56;;;15.27;46.52
13869;BME280;7004;48.206;16.402;2023-03-26T07:33:08;99102.09;;;15.26;45.98
13869;BME280;7004;48.206;16.402;2023-03-26T07:47:04;99090.91;;;15.13;45.08
13869;BME280;7004;48.206;16.402;2023-03-26T07:49:35;99090.97;;;15.69;44.54
13869;BME280;7004;48.206;16.402;2023-03-26T07:52:04;99096.00;;;16.00;43.01
13869;BME280;7004;48.206;16.402;2023-03-26T07:54:30;99092.69;;;16.16;42.24
13869;BME280;7004;48.206;16.402;2023-03-26T07:57:05;99096.19;;;15.32;42.68
13869;BME280;7004;48.206;16.402;2023-03-26T07:59:45;99086.31;;;16.72;41.37
13869;BME280;7004;48.206;16.402;2023-03-26T08:02:45;99071.41;;;18.02;39.72
13869;BME280;7004;48.206;16.402;2023-03-26T08:05:31;99084.31;;;16.84;40.23
13869;BME280;7004;48.206;16.402;2023-03-26T08:19:45;99072.72;;;15.65;41.32
13869;BME280;7004;48.206;16.402;2023-03-26T08:22:45;99074.44;;;16.21;41.39
13869;BME280;7004;48.206;16.402;2023-03-26T08:28:51;99050.84;;;18.02;37.84
13869;BME280;7004;48.206;16.402;2023-03-26T08:31:35;99050.97;;;17.32;41.47
13869;BME280;7004;48.206;16.402;2023-03-26T08:34:04;99057.16;;;17.59;40.34
13869;BME280;7004;48.206;16.402;2023-03-26T08:36:31;99064.38;;;16.60;42.36
13869;BME280;7004;48.206;16.402;2023-03-26T08:38:57;99058.53;;;17.71;40.75
13869;BME280;7004;48.206;16.402;2023-03-26T09:05:23;99024.81;;;16.92;40.19
13869;BME280;7004;48.206;16.402;2023-03-26T09:10:55;99001.22;;;18.08;38.50
13869;BME280;7004;48.206;16.402;2023-03-26T09:22:23;98978.25;;;18.48;37.68
13869;BME280;7004;48.206;16.402;2023-03-26T09:28:27;98966.50;;;17.74;38.56
13869;BME280;7004;48.206;16.402;2023-03-26T09:34:33;98959.50;;;17.73;41.12
13869;BME280;7004;48.206;16.402;2023-03-26T09:37:23;98960.84;;;16.64;38.76
13869;BME280;7004;48.206;16.402;2023-03-26T09:40:27;98944.53;;;17.80;37.44
13869;BME280;7004;48.206;16.402;2023-03-26T09:46:41;98937.88;;;17.50;37.83
13869;BME280;7004;48.206;16.402;2023-03-26T10:01:26;98894.28;;;19.37;33.42
13869;BME280;7004;48.206;16.402;2023-03-26T10:07:26;98877.44;;;19.91;33.73
13869;BME280;7004;48.206;16.402;2023-03-26T10:12:57;98869.03;;;18.51;34.24
13869;BME280;7004;48.206;16.402;2023-03-26T10:21:43;98846.22;;;17.57;34.11
13869;BME280;7004;48.206;16.402;2023-03-26T10:31:15;98829.50;;;17.63;33.07
13869;BME280;7004;48.206;16.402;2023-03-26T10:46:11;98789.91;;;17.51;32.87
13869;BME280;7004;48.206;16.402;2023-03-26T10:52:02;98791.25;;;17.38;33.16
13869;BME280;7004;48.206;16.402;2023-03-26T11:00:25;98769.28;;;17.10;32.56
13869;BME280;7004;48.206;16.402;2023-03-26T11:03:41;98777.31;;;17.10;32.97
13869;BME280;7004;48.206;16.402;2023-03-26T11:07:17;98766.63;;;17.10;32.89
13869;BME280;7004;48.206;16.402;2023-03-26T11:15:01;98744.09;;;17.13;34.07
13869;BME280;7004;48.206;16.402;2023-03-26T11:21:13;98724.28;;;17.48;32.00
13869;BME280;7004;48.206;16.402;2023-03-26T11:26:54;98720.28;;;17.77;31.51
13869;BME280;7004;48.206;16.402;2023-03-26T11:37:13;98685.28;;;16.80;32.46
13869;BME280;7004;48.206;16.402;2023-03-26T11:39:51;98693.09;;;17.49;31.42
13869;BME280;7004;48.206;16.402;2023-03-26T11:42:22;98692.81;;;16.50;32.27
13869;BME280;7004;48.206;16.402;2023-03-26T11:45:06;98681.53;;;17.89;30.74
13869;BME280;7004;48.206;16.402;2023-03-26T11:47:49;98671.94;;;18.27;30.43
13869;BME280;7004;48.206;16.402;2023-03-26T11:50:28;98669.22;;;17.80;30.52
13869;BME280;7004;48.206;16.402;2023-03-26T11:53:12;98664.69;;;17.15;31.71
13869;BME280;7004;48.206;16.402;2023-03-26T11:56:14;98660.50;;;17.20;30.86
13869;BME280;7004;48.206;16.402;2023-03-26T11:58:54;98653.81;;;17.90;30.34
13869;BME280;7004;48.206;16.402;2023-03-26T12:01:39;98642.47;;;17.47;30.01
13869;BME280;7004;48.206;16.402;2023-03-26T12:04:13;98633.13;;;17.10;30.72
13869;BME280;7004;48.206;16.402;2023-03-26T12:07:17;98627.78;;;17.27;30.45
13869;BME280;7004;48.206;16.402;2023-03-26T12:09:55;98638.22;;;16.36;31.43
13869;BME280;7004;48.206;16.402;2023-03-26T12:12:31;98624.91;;;16.95;31.17
13869;BME280;7004;48.206;16.402;2023-03-26T12:14:58;98621.25;;;17.45;30.84
13869;BME280;7004;48.206;16.402;2023-03-26T12:17:37;98625.75;;;17.61;30.43
13869;BME280;7004;48.206;16.402;2023-03-26T12:20:31;98619.38;;;16.80;31.07
13869;BME280;7004;48.206;16.402;2023-03-26T12:23:03;98615.41;;;16.93;30.54
13869;BME280;7004;48.206;16.402;2023-03-26T12:25:36;98610.41;;;16.90;30.19
13869;BME280;7004;48.206;16.402;2023-03-26T12:28:17;98599.91;;;17.13;30.38
13869;BME280;7004;48.206;16.402;2023-03-26T12:30:58;98592.91;;;17.20;30.09
13869;BME280;7004;48.206;16.402;2023-03-26T12:33:33;98596.22;;;17.55;30.02
13869;BME280;7004;48.206;16.402;2023-03-26T12:36:22;98588.56;;;16.94;29.94
13869;BME280;7004;48.206;16.402;2023-03-26T12:38:52;98589.38;;;17.28;29.86
13869;BME280;7004;48.206;16.402;2023-03-26T12:41:31;98582.88;;;16.81;29.88
13869;BME280;7004;48.206;16.402;2023-03-26T12:44:35;98583.72;;;16.81;29.93
13869;BME280;7004;48.206;16.402;2023-03-26T12:47:12;98586.00;;;16.76;29.60
13869;BME280;7004;48.206;16.402;2023-03-26T12:49:40;98582.47;;;16.68;29.16
13869;BME280;7004;48.206;16.402;2023-03-26T13:02:00;98558.44;;;17.66;27.65
13869;BME280;7004;48.206;16.402;2023-03-26T13:10:36;98535.94;;;18.39;26.49
13869;BME280;7004;48.206;16.402;2023-03-26T13:13:25;98529.97;;;18.60;25.60
13869;BME280;7004;48.206;16.402;2023-03-26T13:16:20;98527.19;;;18.22;26.19
13869;BME280;7004;48.206;16.402;2023-03-26T13:30:36;98507.88;;;17.48;26.95
13869;BME280;7004;48.206;16.402;2023-03-26T13:33:24;98512.75;;;17.44;27.17
13869;BME280;7004;48.206;16.402;2023-03-26T13:36:04;98504.94;;;17.27;27.00
13869;BME280;7004;48.206;16.402;2023-03-26T13:38:57;98493.25;;;17.36;28.09
13869;BME280;7004;48.206;16.402;2023-03-26T13:41:35;98489.75;;;17.19;28.52
13869;BME280;7004;48.206;16.402;2023-03-26T13:47:19;98488.28;;;17.00;29.55
13869;BME280;7004;48.206;16.402;2023-03-26T13:53:03;98471.81;;;17.52;29.71
13869;BME280;7004;48.206;16.402;2023-03-26T14:04:25;98454.34;;;17.33;30.31
13869;BME280;7004;48.206;16.402;2023-03-26T14:10:07;98424.84;;;17.18;30.14
13869;BME280;7004;48.206;16.402;2023-03-26T14:13:01;98413.06;;;16.88;29.62
13869;BME280;7004;48.206;16.402;2023-03-26T14:15:58;98400.72;;;16.71;29.82
13869;BME280;7004;48.206;16.402;2023-03-26T14:21:33;98394.53;;;17.03;29.42
13869;BME280;7004;48.206;16.402;2023-03-26T14:30:45;98384.69;;;16.95;30.35
13869;BME280;7004;48.206;16.402;2023-03-26T14:34:10;98374.88;;;17.43;29.61
13869;BME280;7004;48.206;16.402;2023-03-26T14:53:49;98345.53;;;16.79;33.55
13869;BME280;7004;48.206;16.402;2023-03-26T15:05:46;98348.03;;;16.65;34.45
13869;BME280;7004;48.206;16.402;2023-03-26T15:32:54;98330.09;;;17.06;35.35
13869;BME280;7004;48.206;16.402;2023-03-26T15:41:49;98328.03;;;16.52;37.19
13869;BME280;7004;48.206;16.402;2023-03-26T15:49:49;98318.69;;;16.56;37.29
13869;BME280;7004;48.206;16.402;2023-03-26T16:04:23;98349.06;;;16.31;36.48
13869;BME280;7004;48.206;16.402;2023-03-26T16:10:33;98356.53;;;15.78;35.89
13869;BME280;7004;48.206;16.402;2023-03-26T16:19:24;98373.53;;;15.43;37.81
13869;BME280;7004;48.206;16.402;2023-03-26T16:21:43;98383.16;;;15.70;37.62
13869;BME280;7004;48.206;16.402;2023-03-26T16:24:45;98388.38;;;15.54;38.60
13869;BME280;7004;48.206;16.402;2023-03-26T16:32:51;98392.00;;;15.36;40.24
13869;BME280;7004;48.206;16.402;2023-03-26T16:35:38;98390.69;;;15.06;41.13
13869;BME280;7004;48.206;16.402;2023-03-26T16:38:14;98393.84;;;15.10;41.22
13869;BME280;7004;48.206;16.402;2023-03-26T16:40:57;98392.31;;;14.73;41.78
13869;BME280;7004;48.206;16.402;2023-03-26T16:43:50;98385.81;;;15.01;41.45
13869;BME280;7004;48.206;16.402;2023-03-26T16:46:35;98383.06;;;14.85;42.32
13869;BME280;7004;48.206;16.402;2023-03-26T16:49:34;98374.72;;;14.54;42.21
13869;BME280;7004;48.206;16.402;2023-03-26T17:01:21;98409.59;;;14.33;42.80
13869;BME280;7004;48.206;16.402;2023-03-26T17:04:17;98409.97;;;14.38;43.26
13869;BME280;7004;48.206;16.402;2023-03-26T17:13:21;98418.44;;;13.88;44.58
13869;BME280;7004;48.206;16.402;2023-03-26T17:15:42;98423.00;;;13.95;44.16
13869;BME280;7004;48.206;16.402;2023-03-26T17:33:34;98427.50;;;13.95;46.50
13869;BME280;7004;48.206;16.402;2023-03-26T17:45:06;98427.97;;;13.63;47.69
13869;BME280;7004;48.206;16.402;2023-03-26T17:48:28;98425.41;;;13.43;48.37
13869;BME280;7004;48.206;16.402;2023-03-26T17:53:30;98428.75;;;13.45;48.71
13869;BME280;7004;48.206;16.402;2023-03-26T17:56:03;98426.16;;;13.36;49.13
13869;BME280;7004;48.206;16.402;2023-03-26T17:58:46;98432.25;;;13.46;49.43
13869;BME280;7004;48.206;16.402;2023-03-26T18:01:37;98442.53;;;13.21;50.02
13869;BME280;7004;48.206;16.402;2023-03-26T18:04:10;98437.81;;;13.52;49.45
13869;BME280;7004;48.206;16.402;2023-03-26T18:13:09;98428.91;;;12.97;51.08
13869;BME280;7004;48.206;16.402;2023-03-26T18:21:38;98421.53;;;12.90;51.85
13869;BME280;7004;48.206;16.402;2023-03-26T18:24:07;98420.28;;;12.95;52.18
13869;BME280;7004;48.206;16.402;2023-03-26T19:51:04;98332.72;;;12.67;55.35
13869;BME280;7004;48.206;16.402;2023-03-26T19:53:35;98324.78;;;12.57;55.67
13869;BME280;7004;48.206;16.402;2023-03-26T19:56:12;98329.56;;;12.44;55.93
13869;BME280;7004;48.206;16.402;2023-03-26T19:58:41;98323.84;;;12.39;55.72
13869;BME280;7004;48.206;16.402;2023-03-26T20:01:34;98326.88;;;12.54;54.74
13869;BME280;7004;48.206;16.402;2023-03-26T20:04:04;98321.34;;;12.37;55.33
13869;BME280;7004;48.206;16.402;2023-03-26T20:06:33;98310.41;;;12.50;54.47
13869;BME280;7004;48.206;16.402;2023-03-26T20:09:02;98323.84;;;12.39;55.15
13869;BME280;7004;48.206;16.402;2023-03-26T20:11:36;98304.97;;;12.61;55.33
13869;BME280;7004;48.206;16.402;2023-03-26T20:14:16;98298.34;;;12.75;54.56
13869;BME280;7004;48.206;16.402;2023-03-26T20:16:48;98308.91;;;12.48;54.21
13869;BME280;7004;48.206;16.402;2023-03-26T20:19:15;98304.97;;;12.61;54.55
13869;BME280;7004;48.206;16.402;2023-03-26T20:21:53;98303.59;;;12.48;54.53
13869;BME280;7004;48.206;16.402;2023-03-26T20:24:20;98300.28;;;12.45;53.78
13869;BME280;7004;48.206;16.402;2023-03-26T20:26:49;98292.72;;;12.51;53.79
13869;BME280;7004;48.206;16.402;2023-03-26T20:29:17;98301.25;;;12.44;53.84
13869;BME280;7004;48.206;16.402;2023-03-26T20:31:45;98278.59;;;12.60;53.41
13869;BME280;7004;48.206;16.402;2023-03-26T20:34:17;98279.00;;;12.65;53.60
13869;BME280;7004;48.206;16.402;2023-03-26T20:36:45;98272.13;;;12.72;53.49
13869;BME280;7004;48.206;16.402;2023-03-26T20:39:17;98285.50;;;12.33;54.28
13869;BME280;7004;48.206;16.402;2023-03-26T20:41:47;98282.97;;;12.41;55.22
13869;BME280;7004;48.206;16.402;2023-03-26T20:44:20;98280.09;;;12.25;55.73
13869;BME280;7004;48.206;16.402;2023-03-26T20:46:48;98269.31;;;12.36;54.93
13869;BME280;7004;48.206;16.402;2023-03-26T20:49:14;98271.84;;;12.38;55.55
13869;BME280;7004;48.206;16.402;2023-03-26T20:51:41;98271.88;;;12.18;56.12
13869;BME280;7004;48.206;16.402;2023-03-26T20:54:19;98265.47;;;12.11;56.66
13869;BME280;7004;48.206;16.402;2023-03-26T20:56:46;98252.06;;;12.32;56.17
13869;BME280;7004;48.206;16.402;2023-03-26T20:59:22;98254.44;;;12.16;57.21
13869;BME280;7004;48.206;16.402;2023-03-26T21:01:52;98257.19;;;12.34;56.26